createdAt,value
2018-09-10T00:00:27.946Z,10.20
2018-09-10T00:02:56.218Z,11.20
2018-09-10T00:05:24.589Z,10.83
2018-09-10T00:07:53.064Z,10.10
2018-09-10T00:10:21.502Z,10.70
2018-09-10T00:12:49.938Z,10.87
2018-09-10T00:15:18.173Z,10.47
2018-09-10T00:17:46.491Z,11.90
2018-09-10T00:20:14.769Z,10.97
2018-09-10T00:22:43.014Z,11.13
2018-09-10T00:25:11.370Z,10.60
2018-09-10T00:27:39.705Z,10.60
2018-09-10T00:30:08.027Z,10.53
2018-09-10T00:32:36.300Z,10.13
2018-09-10T00:35:04.773Z,9.70
2018-09-10T00:37:33.053Z,10.37
2018-09-10T00:40:01.354Z,10.47
2018-09-10T00:42:29.621Z,9.60
2018-09-10T00:44:57.831Z,9.20
2018-09-10T00:47:26.005Z,10.43
2018-09-10T00:49:54.290Z,9.47
2018-09-10T00:52:22.574Z,11.30
2018-09-10T00:54:50.773Z,11.20
2018-09-10T00:57:19.047Z,10.80
2018-09-10T00:59:47.230Z,11.80
2018-09-10T01:02:15.438Z,11.67
2018-09-10T01:04:43.613Z,10.67
2018-09-10T01:07:11.800Z,11.63
2018-09-10T01:09:39.991Z,11.37
2018-09-10T01:12:08.294Z,12.30
2018-09-10T01:14:36.567Z,11.50
2018-09-10T01:17:04.982Z,11.97
2018-09-10T01:19:33.186Z,11.30
2018-09-10T01:22:01.355Z,11.40
2018-09-10T01:24:29.647Z,10.50
2018-09-10T01:26:57.833Z,10.77
2018-09-10T01:29:26.061Z,11.97
2018-09-10T01:31:54.278Z,11.40
2018-09-10T01:34:27.821Z,12.17
2018-09-10T01:36:55.993Z,12.10
2018-09-10T01:39:24.221Z,11.47
2018-09-10T01:41:53.322Z,11.23
2018-09-10T01:44:21.612Z,11.10
2018-09-10T01:46:49.781Z,12.60
2018-09-10T01:49:17.961Z,12.00
2018-09-10T01:51:46.221Z,11.93
2018-09-10T01:54:15.856Z,12.10
2018-09-10T01:56:44.045Z,12.17
2018-09-10T01:59:12.229Z,12.40
2018-09-10T02:01:40.418Z,11.93
2018-09-10T02:04:08.605Z,12.13
2018-09-10T02:06:36.776Z,12.30
2018-09-10T02:09:07.269Z,11.97
2018-09-10T02:11:35.497Z,12.00
2018-09-10T02:14:03.690Z,12.73
2018-09-10T02:16:31.902Z,11.33
2018-09-10T02:19:00.090Z,11.23
2018-09-10T02:21:28.266Z,11.20
2018-09-10T02:23:56.445Z,12.27
2018-09-10T02:26:24.617Z,12.10
2018-09-10T02:28:52.814Z,13.10
2018-09-10T02:31:21.099Z,12.73
2018-09-10T02:33:49.273Z,10.77
2018-09-10T02:36:17.451Z,11.20
2018-09-10T02:38:45.630Z,12.27
2018-09-10T02:41:13.838Z,11.80
2018-09-10T02:43:42.041Z,12.53
2018-09-10T02:46:10.317Z,11.43
2018-09-10T02:48:38.606Z,11.70
2018-09-10T02:51:06.797Z,11.50
2018-09-10T02:53:34.981Z,12.10
2018-09-10T02:56:03.161Z,12.20
2018-09-10T02:58:31.334Z,11.67
2018-09-10T03:00:59.537Z,12.70
2018-09-10T03:03:27.733Z,11.93
2018-09-10T03:05:55.899Z,11.90
2018-09-10T03:08:24.109Z,12.03
2018-09-10T03:10:52.285Z,11.97
2018-09-10T03:13:20.477Z,12.40
2018-09-10T03:15:48.667Z,12.10
2018-09-10T03:18:16.950Z,12.90
2018-09-10T03:20:45.144Z,11.90
2018-09-10T03:23:13.439Z,12.93
2018-09-10T03:25:41.613Z,12.90
2018-09-10T03:28:09.814Z,12.97
2018-09-10T03:30:38.286Z,12.00
2018-09-10T03:33:06.506Z,13.03
2018-09-10T03:35:34.693Z,13.80
2018-09-10T03:38:02.985Z,12.33
2018-09-10T03:40:31.162Z,12.87
2018-09-10T03:42:59.373Z,12.33
2018-09-10T03:45:27.613Z,13.30
2018-09-10T03:47:55.801Z,12.97
2018-09-10T03:50:23.963Z,12.70
2018-09-10T03:52:52.152Z,11.37
2018-09-10T03:55:20.364Z,13.20
2018-09-10T03:57:48.549Z,12.43
2018-09-10T04:00:16.740Z,12.90
2018-09-10T04:02:45.052Z,12.37
2018-09-10T04:05:13.318Z,12.23
2018-09-10T04:07:41.509Z,11.53
2018-09-10T04:10:09.693Z,12.27
2018-09-10T04:12:37.865Z,11.70
2018-09-10T04:15:06.074Z,12.17
2018-09-10T04:17:34.253Z,13.00
2018-09-10T04:20:11.636Z,12.13
2018-09-10T04:22:41.157Z,11.37
2018-09-10T04:25:09.333Z,13.63
2018-09-10T04:27:38.242Z,12.77
2018-09-10T04:30:12.673Z,12.20
2018-09-10T04:32:40.933Z,12.90
2018-09-10T04:35:09.554Z,12.40
2018-09-10T04:37:38.163Z,11.90
2018-09-10T04:40:07.310Z,12.83
2018-09-10T04:42:35.562Z,14.30
2018-09-10T04:45:03.958Z,11.57
2018-09-10T04:47:32.141Z,12.03
2018-09-10T04:50:00.326Z,11.73
2018-09-10T04:52:28.530Z,12.40
2018-09-10T04:54:56.701Z,11.27
2018-09-10T04:57:25.133Z,12.30
2018-09-10T04:59:53.308Z,13.00
2018-09-10T05:02:21.502Z,12.90
2018-09-10T05:04:49.674Z,12.90
2018-09-10T05:07:24.167Z,13.13
2018-09-10T05:09:52.377Z,12.60
2018-09-10T05:12:20.558Z,12.20
2018-09-10T05:14:48.908Z,11.80
2018-09-10T05:17:17.178Z,12.03
2018-09-10T05:19:45.426Z,12.37
2018-09-10T05:22:13.617Z,11.60
2018-09-10T05:24:42.046Z,11.80
2018-09-10T05:27:10.229Z,12.40
2018-09-10T05:29:38.597Z,13.17
2018-09-10T05:32:06.857Z,12.03
2018-09-10T05:34:35.037Z,11.37
2018-09-10T05:37:03.242Z,11.97
2018-09-10T05:39:31.471Z,11.37
2018-09-10T05:41:59.665Z,11.87
2018-09-10T05:44:27.854Z,11.97
2018-09-10T05:46:56.059Z,11.33
2018-09-10T05:49:24.253Z,10.93
2018-09-10T05:51:52.437Z,10.63
2018-09-10T05:54:20.627Z,11.83
2018-09-10T05:56:48.917Z,10.83
2018-09-10T05:59:17.102Z,11.17
2018-09-10T06:01:45.295Z,11.30
2018-09-10T06:04:13.489Z,12.17
2018-09-10T06:06:41.681Z,12.53
2018-09-10T06:09:09.868Z,11.97
2018-09-10T06:11:38.168Z,11.27
2018-09-10T06:14:06.392Z,11.20
2018-09-10T06:16:34.614Z,12.20
2018-09-10T06:19:02.962Z,11.73
2018-09-10T06:21:31.234Z,12.13
2018-09-10T06:24:00.643Z,12.10
2018-09-10T06:26:28.925Z,12.30
2018-09-10T06:28:57.178Z,10.90
2018-09-10T06:31:25.481Z,12.67
2018-09-10T06:33:54.754Z,13.00
2018-09-10T06:36:22.949Z,11.30
2018-09-10T06:38:51.121Z,11.67
2018-09-10T06:41:19.297Z,12.17
2018-09-10T06:43:47.486Z,11.03
2018-09-10T06:46:15.674Z,12.57
2018-09-10T06:48:43.849Z,11.87
2018-09-10T06:51:12.049Z,13.00
2018-09-10T06:53:40.228Z,12.07
2018-09-10T06:56:08.414Z,12.97
2018-09-10T06:58:36.622Z,11.33
2018-09-10T07:01:04.858Z,11.67
2018-09-10T07:03:33.028Z,11.10
2018-09-10T07:06:01.216Z,12.67
2018-09-10T07:08:29.398Z,11.70
2018-09-10T07:10:57.581Z,11.90
2018-09-10T07:13:26.118Z,12.90
2018-09-10T07:15:54.561Z,12.63
2018-09-10T07:18:23.105Z,10.83
2018-09-10T07:20:51.493Z,12.57
2018-09-10T07:23:19.897Z,11.80
2018-09-10T07:25:48.070Z,12.00
2018-09-10T07:28:16.266Z,12.40
2018-09-10T07:30:44.421Z,12.43
2018-09-10T07:33:12.709Z,11.47
2018-09-10T07:35:41.332Z,12.10
2018-09-10T07:38:09.518Z,12.20
2018-09-10T07:40:37.698Z,11.50
2018-09-10T07:43:05.909Z,11.63
2018-09-10T07:45:34.090Z,11.60
2018-09-10T07:48:02.281Z,12.23
2018-09-10T07:50:30.457Z,13.70
2018-09-10T07:52:58.637Z,11.87
2018-09-10T07:55:26.819Z,12.87
2018-09-10T07:57:54.994Z,12.57
2018-09-10T08:00:23.175Z,12.67
2018-09-10T08:02:51.403Z,11.77
2018-09-10T08:05:19.561Z,11.00
2018-09-10T08:07:47.747Z,12.37
2018-09-10T08:10:15.945Z,12.00
2018-09-10T08:12:44.154Z,11.60
2018-09-10T08:15:12.329Z,11.27
2018-09-10T08:17:40.578Z,11.83
2018-09-10T08:20:08.879Z,12.20
2018-09-10T08:22:37.066Z,11.30
2018-09-10T08:25:05.318Z,11.83
2018-09-10T08:27:33.565Z,12.50
2018-09-10T08:30:01.774Z,12.50
2018-09-10T08:32:29.993Z,11.50
2018-09-10T08:34:58.177Z,12.03
2018-09-10T08:37:26.373Z,12.60
2018-09-10T08:39:54.570Z,11.90
2018-09-10T08:42:22.778Z,11.73
2018-09-10T08:44:50.965Z,12.43
2018-09-10T08:47:19.157Z,12.20
2018-09-10T08:49:47.333Z,11.50
2018-09-10T08:52:15.537Z,11.20
2018-09-10T08:54:44.008Z,12.10
2018-09-10T08:57:11.927Z,11.13
2018-09-10T08:59:40.108Z,12.83
2018-09-10T09:02:08.306Z,11.63
2018-09-10T09:04:36.519Z,12.23
2018-09-10T09:07:04.726Z,11.80
2018-09-10T09:09:32.922Z,11.50
2018-09-10T09:12:01.111Z,11.53
2018-09-10T09:14:29.934Z,12.70
2018-09-10T09:16:58.142Z,11.50
2018-09-10T09:19:26.329Z,11.70
2018-09-10T09:21:54.529Z,12.63
2018-09-10T09:24:22.730Z,10.90
2018-09-10T09:26:50.929Z,11.40
2018-09-10T09:29:19.108Z,12.50
2018-09-10T09:31:47.307Z,11.07
2018-09-10T09:34:15.493Z,12.43
2018-09-10T09:36:48.969Z,10.83
2018-09-10T09:39:22.558Z,11.60
2018-09-10T09:41:56.229Z,10.33
2018-09-10T09:45:27.427Z,12.70
2018-09-10T09:47:55.665Z,10.77
2018-09-10T09:53:09.317Z,9.87
2018-09-10T09:55:37.629Z,9.77
2018-09-10T09:58:05.917Z,10.43
2018-09-10T10:00:39.473Z,10.50
2018-09-10T10:03:13.079Z,9.50
2018-09-10T10:05:41.396Z,9.27
2018-09-10T10:08:09.622Z,9.77
2018-09-10T10:10:37.946Z,10.07
2018-09-10T10:13:06.152Z,9.77
2018-09-10T10:15:34.405Z,10.30
2018-09-10T10:18:02.617Z,9.30
2018-09-10T10:20:30.831Z,9.20
2018-09-10T10:22:59.059Z,9.50
2018-09-10T10:25:27.282Z,9.37
2018-09-10T10:27:55.613Z,8.63
2018-09-10T10:30:23.825Z,8.70
2018-09-10T10:32:52.579Z,9.70
2018-09-10T10:35:22.232Z,9.83
2018-09-10T10:37:50.433Z,8.70
2018-09-10T10:40:18.657Z,8.73
2018-09-10T10:42:47.189Z,7.90
2018-09-10T10:45:15.397Z,8.80
2018-09-10T10:47:43.673Z,8.40
2018-09-10T10:50:11.858Z,8.20
2018-09-10T10:52:40.057Z,8.17
2018-09-10T10:55:08.290Z,8.53
2018-09-10T10:57:36.507Z,8.83
2018-09-10T11:00:04.737Z,8.80
2018-09-10T11:02:32.997Z,8.40
2018-09-10T11:05:04.033Z,7.80
2018-09-10T11:07:32.245Z,7.00
2018-09-10T11:10:00.536Z,7.63
2018-09-10T11:12:28.758Z,7.97
2018-09-10T11:14:56.964Z,7.30
2018-09-10T11:17:25.217Z,7.13
2018-09-10T11:19:53.406Z,8.43
2018-09-10T11:22:21.689Z,7.80
2018-09-10T11:24:49.834Z,7.80
2018-09-10T11:27:18.394Z,7.67
2018-09-10T11:29:46.590Z,7.33
2018-09-10T11:32:14.821Z,8.10
2018-09-10T11:34:43.145Z,7.43
2018-09-10T11:37:11.422Z,7.37
2018-09-10T11:39:39.657Z,6.90
2018-09-10T11:42:07.874Z,7.30
2018-09-10T11:44:36.073Z,6.97
2018-09-10T11:47:04.392Z,7.77
2018-09-10T11:49:32.593Z,7.00
2018-09-10T11:52:00.813Z,6.20
2018-09-10T11:54:28.994Z,6.60
2018-09-10T11:56:57.213Z,6.87
2018-09-10T11:59:25.536Z,6.73
2018-09-10T12:01:53.827Z,6.83
2018-09-10T12:04:22.060Z,6.70
2018-09-10T12:06:50.507Z,6.57
2018-09-10T12:09:18.722Z,7.37
2018-09-10T12:11:47.109Z,6.60
2018-09-10T12:14:15.392Z,6.90
2018-09-10T12:16:51.100Z,6.33
2018-09-10T12:19:20.055Z,6.90
2018-09-10T12:21:48.526Z,6.30
2018-09-10T12:24:16.766Z,6.90
2018-09-10T12:26:45.243Z,6.20
2018-09-10T12:29:13.453Z,6.27
2018-09-10T12:31:41.675Z,6.10
2018-09-10T12:34:09.945Z,5.90
2018-09-10T12:36:38.237Z,5.83
2018-09-10T12:39:08.901Z,6.17
2018-09-10T12:41:37.265Z,6.60
2018-09-10T12:44:05.903Z,6.20
2018-09-10T12:46:34.289Z,6.03
2018-09-10T12:49:02.618Z,6.07
2018-09-10T12:51:30.977Z,5.73
2018-09-10T12:53:59.198Z,6.40
2018-09-10T12:56:27.540Z,5.80
2018-09-10T12:58:55.838Z,5.60
2018-09-10T13:01:24.055Z,5.57
2018-09-10T13:03:52.726Z,6.10
2018-09-10T13:06:21.031Z,4.93
2018-09-10T13:08:49.421Z,6.40
2018-09-10T13:11:17.716Z,6.13
2018-09-10T13:13:45.968Z,5.07
2018-09-10T13:16:14.316Z,5.70
2018-09-10T13:18:42.683Z,6.23
2018-09-10T13:21:10.990Z,5.90
2018-09-10T13:23:39.264Z,6.07
2018-09-10T13:26:07.606Z,6.17
2018-09-10T13:28:35.911Z,5.90
2018-09-10T13:31:04.159Z,6.10
2018-09-10T13:33:32.460Z,6.47
2018-09-10T13:36:00.858Z,5.80
2018-09-10T13:38:29.041Z,6.17
2018-09-10T13:40:57.398Z,6.07
2018-09-10T13:43:25.826Z,5.90
2018-09-10T13:45:54.340Z,5.87
2018-09-10T13:48:22.732Z,5.80
2018-09-10T13:50:50.997Z,5.80
2018-09-10T13:53:19.290Z,5.83
2018-09-10T13:55:47.701Z,6.27
2018-09-10T13:58:15.903Z,5.70
2018-09-10T14:00:44.121Z,5.93
2018-09-10T14:03:12.400Z,6.13
2018-09-10T14:05:40.577Z,5.83
2018-09-10T14:08:08.770Z,5.83
2018-09-10T14:10:36.987Z,6.37
2018-09-10T14:13:05.193Z,7.17
2018-09-10T14:15:33.426Z,6.20
2018-09-10T14:18:01.929Z,6.80
2018-09-10T14:20:30.791Z,6.90
2018-09-10T14:22:59.314Z,8.07
2018-09-10T14:25:27.546Z,6.60
2018-09-10T14:27:55.818Z,6.57
2018-09-10T14:30:24.137Z,6.27
2018-09-10T14:32:52.345Z,5.93
2018-09-10T14:35:20.555Z,5.70
2018-09-10T14:37:48.737Z,5.87
2018-09-10T14:40:16.975Z,6.27
2018-09-10T14:42:45.224Z,5.80
2018-09-10T14:45:13.425Z,5.80
2018-09-10T14:47:41.648Z,6.03
2018-09-10T14:50:09.918Z,6.80
2018-09-10T14:52:38.114Z,5.77
2018-09-10T14:55:06.531Z,5.80
2018-09-10T14:57:34.716Z,6.03
2018-09-10T15:00:03.109Z,7.10
2018-09-10T15:02:31.322Z,5.70
2018-09-10T15:04:59.489Z,6.53
2018-09-10T15:07:27.696Z,5.67
2018-09-10T15:09:55.889Z,5.80
2018-09-10T15:12:24.081Z,5.77
2018-09-10T15:14:52.301Z,5.70
2018-09-10T15:17:20.487Z,5.60
2018-09-10T15:19:48.679Z,6.20
2018-09-10T15:22:16.882Z,6.77
2018-09-10T15:24:45.173Z,5.67
2018-09-10T15:27:13.350Z,5.90
2018-09-10T15:29:41.544Z,5.60
2018-09-10T15:32:09.739Z,6.80
2018-09-10T15:34:37.982Z,6.20
2018-09-10T15:37:06.102Z,5.60
2018-09-10T15:39:34.403Z,6.13
2018-09-10T15:42:02.564Z,6.40
2018-09-10T15:44:30.793Z,6.43
2018-09-10T15:46:59.006Z,5.83
2018-09-10T15:49:27.250Z,6.50
2018-09-10T15:51:56.059Z,6.30
2018-09-10T15:54:24.288Z,6.47
2018-09-10T15:56:52.885Z,6.80
2018-09-10T15:59:21.157Z,6.40
2018-09-10T16:01:49.391Z,6.80
2018-09-10T16:04:17.605Z,6.37
2018-09-10T16:06:45.822Z,5.50
2018-09-10T16:09:14.042Z,6.00
2018-09-10T16:11:42.251Z,6.50
2018-09-10T16:14:10.483Z,6.10
2018-09-10T16:16:38.698Z,6.60
2018-09-10T16:19:06.907Z,6.37
2018-09-10T16:21:35.176Z,7.10
2018-09-10T16:24:03.410Z,6.10
2018-09-10T16:26:31.593Z,6.10
2018-09-10T16:28:59.795Z,5.60
2018-09-10T16:31:27.973Z,5.83
2018-09-10T16:33:56.194Z,5.67
2018-09-10T16:36:24.333Z,6.23
2018-09-10T16:38:52.601Z,5.47
2018-09-10T16:41:23.918Z,6.23
2018-09-10T16:43:52.093Z,5.80
2018-09-10T16:46:20.262Z,6.17
2018-09-10T16:48:48.464Z,6.07
2018-09-10T16:51:16.622Z,6.10
2018-09-10T16:57:35.024Z,5.70
2018-09-10T17:00:03.617Z,5.63
2018-09-10T17:02:31.813Z,6.30
2018-09-10T17:05:00.009Z,6.57
2018-09-10T17:07:28.194Z,5.80
2018-09-10T17:09:56.417Z,6.70
2018-09-10T17:12:24.623Z,6.20
2018-09-10T17:14:52.934Z,7.13
2018-09-10T17:17:21.109Z,6.83
2018-09-10T17:19:49.478Z,6.17
2018-09-10T17:22:17.730Z,5.73
2018-09-10T17:24:45.890Z,5.00
2018-09-10T17:27:14.162Z,5.63
2018-09-10T17:29:42.498Z,6.80
2018-09-10T17:34:36.746Z,6.20
2018-09-10T17:37:04.893Z,7.13
2018-09-10T17:39:33.098Z,6.03
2018-09-10T17:42:01.316Z,8.03
2018-09-10T17:44:29.573Z,7.50
2018-09-10T17:46:58.157Z,6.63
2018-09-10T17:49:26.220Z,7.27
2018-09-10T17:51:54.462Z,6.30
2018-09-10T17:54:22.670Z,7.13
2018-09-10T17:56:50.953Z,6.27
2018-09-10T17:59:19.177Z,7.70
2018-09-10T18:01:47.381Z,7.03
2018-09-10T18:04:15.691Z,7.50
2018-09-10T18:06:43.921Z,9.00
2018-09-10T18:09:12.950Z,7.23
2018-09-10T18:11:41.645Z,8.10
2018-09-10T18:14:09.830Z,6.70
2018-09-10T18:16:38.045Z,7.27
2018-09-10T18:19:06.241Z,6.97
2018-09-10T18:21:35.109Z,6.17
2018-09-10T18:24:04.017Z,7.30
2018-09-10T18:26:32.277Z,7.37
2018-09-10T18:29:00.478Z,6.67
2018-09-10T18:31:28.721Z,6.17
2018-09-10T18:33:57.078Z,7.07
2018-09-10T18:36:25.289Z,6.97
2018-09-10T18:38:53.579Z,6.70
2018-09-10T18:41:21.870Z,6.80
2018-09-10T18:43:50.116Z,7.00
2018-09-10T18:46:18.313Z,7.70
2018-09-10T18:48:46.516Z,8.00
2018-09-10T18:51:14.813Z,7.63
2018-09-10T18:53:43.011Z,6.70
2018-09-10T18:56:11.286Z,7.10
2018-09-10T18:58:39.491Z,7.50
2018-09-10T19:01:07.771Z,6.33
2018-09-10T19:03:36.069Z,6.40
2018-09-10T19:06:04.359Z,6.80
2018-09-10T19:08:32.695Z,6.77
2018-09-10T19:11:01.129Z,7.43
2018-09-10T19:13:29.353Z,7.50
2018-09-10T19:15:57.591Z,8.40
2018-09-10T19:18:31.035Z,7.60
2018-09-10T19:20:59.316Z,6.53
2018-09-10T19:23:27.583Z,6.40
2018-09-10T19:25:56.152Z,6.70
2018-09-10T19:28:24.814Z,7.00
2018-09-10T19:30:53.169Z,6.80
2018-09-10T19:33:21.469Z,7.03
2018-09-10T19:35:49.757Z,6.70
2018-09-10T19:38:18.072Z,6.97
2018-09-10T19:40:46.317Z,6.40
2018-09-10T19:43:14.721Z,6.43
2018-09-10T19:45:42.989Z,5.90
2018-09-10T19:48:11.290Z,5.93
2018-09-10T19:50:39.580Z,6.30
2018-09-10T19:53:08.362Z,6.23
2018-09-10T19:55:36.574Z,7.10
2018-09-10T19:58:04.939Z,6.60
2018-09-10T20:00:34.194Z,7.60
2018-09-10T20:03:02.746Z,8.10
2018-09-10T20:05:30.955Z,8.80
2018-09-10T20:07:59.282Z,8.90
2018-09-10T20:10:27.525Z,11.20
2018-09-10T20:12:55.837Z,10.73
2018-09-10T20:15:24.035Z,9.40
2018-09-10T20:17:52.242Z,10.50
2018-09-10T20:20:20.490Z,10.80
2018-09-10T20:22:48.797Z,10.33
2018-09-10T20:25:17.005Z,10.07
2018-09-10T20:27:45.217Z,10.87
2018-09-10T20:30:15.649Z,10.80
2018-09-10T20:32:43.990Z,10.13
2018-09-10T20:35:12.214Z,10.17
2018-09-10T20:37:40.537Z,12.03
2018-09-10T20:40:08.758Z,10.87
2018-09-10T20:42:36.983Z,9.70
2018-09-10T20:45:06.112Z,10.80
2018-09-10T20:47:41.780Z,10.67
2018-09-10T20:50:10.063Z,9.23
2018-09-10T20:52:38.333Z,9.20
2018-09-10T20:55:06.650Z,11.40
2018-09-10T20:57:35.018Z,8.90
2018-09-10T21:00:03.271Z,9.60
2018-09-10T21:02:33.605Z,9.33
2018-09-10T21:05:01.963Z,8.83
2018-09-10T21:07:30.117Z,7.60
2018-09-10T21:09:58.345Z,8.67
2018-09-10T21:12:26.643Z,7.40
2018-09-10T21:14:55.025Z,8.37
2018-09-10T21:17:23.226Z,8.57
2018-09-10T21:19:51.449Z,8.83
2018-09-10T21:22:19.740Z,7.83
2018-09-10T21:24:47.969Z,8.80
2018-09-10T21:27:16.284Z,6.90
2018-09-10T21:29:44.545Z,9.13
2018-09-10T21:32:12.873Z,8.80
2018-09-10T21:34:41.121Z,8.00
2018-09-10T21:37:09.297Z,8.77
2018-09-10T21:39:37.505Z,9.10
2018-09-10T21:42:05.782Z,8.40
2018-09-10T21:44:34.109Z,7.73
2018-09-10T21:47:02.430Z,8.87
2018-09-10T21:49:30.649Z,8.10
2018-09-10T21:51:59.013Z,7.93
2018-09-10T21:54:27.277Z,8.20
2018-09-10T21:56:55.544Z,8.40
2018-09-10T21:59:23.826Z,9.13
2018-09-10T22:01:52.101Z,9.10
2018-09-10T22:04:20.569Z,8.30
2018-09-10T22:06:48.797Z,8.93
2018-09-10T22:09:17.076Z,9.20
2018-09-10T22:11:50.570Z,9.07
2018-09-10T22:14:23.788Z,8.80
2018-09-10T22:16:52.248Z,8.30
2018-09-10T22:19:20.481Z,8.83
2018-09-10T22:21:48.757Z,8.23
2018-09-10T22:24:17.047Z,8.50
2018-09-10T22:26:45.505Z,9.20
2018-09-10T22:29:13.905Z,9.20
2018-09-10T22:31:42.169Z,7.67
2018-09-10T22:34:10.398Z,8.07
2018-09-10T22:36:38.689Z,8.30
2018-09-10T22:39:09.856Z,8.63
2018-09-10T22:41:38.197Z,8.63
2018-09-10T22:44:06.483Z,7.43
2018-09-10T22:46:35.361Z,7.00
2018-09-10T22:49:03.709Z,8.00
2018-09-10T22:51:32.001Z,8.40
2018-09-10T22:54:00.297Z,9.53
2018-09-10T22:56:28.589Z,9.70
2018-09-10T22:58:56.920Z,10.20
2018-09-10T23:01:25.244Z,9.80
2018-09-10T23:03:54.495Z,11.47
2018-09-10T23:06:25.176Z,10.43
2018-09-10T23:08:53.577Z,10.77
2018-09-10T23:11:21.821Z,10.33
2018-09-10T23:13:50.154Z,10.60
2018-09-10T23:16:18.373Z,9.97
2018-09-10T23:18:46.586Z,10.97
2018-09-10T23:21:14.866Z,11.00
2018-09-10T23:23:43.209Z,11.43
2018-09-10T23:26:11.445Z,10.23
2018-09-10T23:28:39.801Z,11.10
2018-09-10T23:31:08.022Z,10.60
2018-09-10T23:33:36.302Z,10.03
2018-09-10T23:36:04.597Z,10.37
2018-09-10T23:38:32.874Z,9.93
2018-09-10T23:41:01.178Z,9.80
2018-09-10T23:43:29.452Z,10.93
2018-09-10T23:45:57.793Z,10.70
2018-09-10T23:48:26.512Z,10.37
2018-09-10T23:50:54.735Z,10.63
2018-09-10T23:53:23.021Z,9.50
2018-09-10T23:55:51.293Z,9.87
2018-09-10T23:58:19.493Z,9.43
